sensor_id;sensor_type;location;lat;lon;timestamp;temperature;humidity
26621;DHT22;14253;44.840;10.444;2024-01-30T00:02:14;-1.90;99.90
26621;DHT22;14253;44.840;10.444;2024-01-30T00:04:40;-1.80;99.90
26621;DHT22;14253;44.840;10.444;2024-01-30T00:07:06;-1.80;99.90
26621;DHT22;14253;44.840;10.444;2024-01-30T00:09:32;-1.80;99.90
26621;DHT22;14253;44.840;10.444;2024-01-30T00:11:58;-1.70;99.90
26621;DHT22;14253;44.840;10.444;2024-01-30T00:14:24;-1.70;99.90
26621;DHT22;14253;44.840;10.444;2024-01-30T00:16:51;-1.60;99.90
26621;DHT22;14253;44.840;10.444;2024-01-30T00:19:18;-1.70;99.90
26621;DHT22;14253;44.840;10.444;2024-01-30T00:21:43;-1.60;99.90
26621;DHT22;14253;44.840;10.444;2024-01-30T00:24:09;-1.60;99.90
26621;DHT22;14253;44.840;10.444;2024-01-30T00:26:35;-1.60;99.90
26621;DHT22;14253;44.840;10.444;2024-01-30T00:29:01;-1.50;99.90
26621;DHT22;14253;44.840;10.444;2024-01-30T00:31:27;-1.50;99.90
26621;DHT22;14253;44.840;10.444;2024-01-30T00:33:53;-1.50;99.90
26621;DHT22;14253;44.840;10.444;2024-01-30T00:36:19;-1.60;99.90
26621;DHT22;14253;44.840;10.444;2024-01-30T00:38:45;-1.70;99.90
26621;DHT22;14253;44.840;10.444;2024-01-30T00:41:11;-1.60;99.90
26621;DHT22;14253;44.840;10.444;2024-01-30T00:43:37;-1.60;99.90
26621;DHT22;14253;44.840;10.444;2024-01-30T00:46:03;-1.60;99.90
26621;DHT22;14253;44.840;10.444;2024-01-30T00:48:29;-1.60;99.90
26621;DHT22;14253;44.840;10.444;2024-01-30T00:50:55;-1.60;99.90
26621;DHT22;14253;44.840;10.444;2024-01-30T00:53:21;-1.50;99.90
26621;DHT22;14253;44.840;10.444;2024-01-30T00:55:47;-1.50;99.90
26621;DHT22;14253;44.840;10.444;2024-01-30T00:58:13;-1.40;99.90
26621;DHT22;14253;44.840;10.444;2024-01-30T01:00:39;-1.40;99.90
26621;DHT22;14253;44.840;10.444;2024-01-30T01:03:05;-1.30;99.90
26621;DHT22;14253;44.840;10.444;2024-01-30T01:05:31;-1.30;99.90
26621;DHT22;14253;44.840;10.444;2024-01-30T01:07:57;-1.30;99.90
26621;DHT22;14253;44.840;10.444;2024-01-30T01:10:23;-1.30;99.90
26621;DHT22;14253;44.840;10.444;2024-01-30T01:12:49;-1.40;99.90
26621;DHT22;14253;44.840;10.444;2024-01-30T01:15:15;-1.40;99.90
26621;DHT22;14253;44.840;10.444;2024-01-30T01:17:41;-1.40;99.90
26621;DHT22;14253;44.840;10.444;2024-01-30T01:20:08;-1.50;99.90
26621;DHT22;14253;44.840;10.444;2024-01-30T01:22:34;-1.40;99.90
26621;DHT22;14253;44.840;10.444;2024-01-30T01:25:00;-1.30;99.90
26621;DHT22;14253;44.840;10.444;2024-01-30T01:27:27;-1.10;99.90
26621;DHT22;14253;44.840;10.444;2024-01-30T01:29:53;-1.30;99.90
26621;DHT22;14253;44.840;10.444;2024-01-30T01:32:19;-1.20;99.90
26621;DHT22;14253;44.840;10.444;2024-01-30T01:34:46;-1.40;99.90
26621;DHT22;14253;44.840;10.444;2024-01-30T01:37:12;-1.40;99.90
26621;DHT22;14253;44.840;10.444;2024-01-30T01:39:38;-1.40;99.90
26621;DHT22;14253;44.840;10.444;2024-01-30T01:42:04;-1.50;99.90
26621;DHT22;14253;44.840;10.444;2024-01-30T01:44:30;-1.60;99.90
26621;DHT22;14253;44.840;10.444;2024-01-30T01:46:57;-1.60;99.90
26621;DHT22;14253;44.840;10.444;2024-01-30T01:49:25;-1.70;99.90
26621;DHT22;14253;44.840;10.444;2024-01-30T01:51:54;-1.70;99.90
26621;DHT22;14253;44.840;10.444;2024-01-30T01:54:23;-1.70;99.90
26621;DHT22;14253;44.840;10.444;2024-01-30T01:56:50;-1.80;99.90
26621;DHT22;14253;44.840;10.444;2024-01-30T01:59:17;-1.80;99.90
26621;DHT22;14253;44.840;10.444;2024-01-30T02:01:44;-1.90;99.90
26621;DHT22;14253;44.840;10.444;2024-01-30T02:04:11;-1.80;99.90
26621;DHT22;14253;44.840;10.444;2024-01-30T02:06:37;-1.80;99.90
26621;DHT22;14253;44.840;10.444;2024-01-30T02:09:04;-1.70;99.90
26621;DHT22;14253;44.840;10.444;2024-01-30T02:11:30;-1.80;99.90
26621;DHT22;14253;44.840;10.444;2024-01-30T02:13:57;-1.90;99.90
26621;DHT22;14253;44.840;10.444;2024-01-30T02:16:27;-1.90;99.90
26621;DHT22;14253;44.840;10.444;2024-01-30T02:18:53;-1.90;99.90
26621;DHT22;14253;44.840;10.444;2024-01-30T02:21:19;-1.90;99.90
26621;DHT22;14253;44.840;10.444;2024-01-30T02:23:47;-1.70;99.90
26621;DHT22;14253;44.840;10.444;2024-01-30T02:26:14;-1.80;99.90
26621;DHT22;14253;44.840;10.444;2024-01-30T02:28:40;-1.90;99.90
26621;DHT22;14253;44.840;10.444;2024-01-30T02:31:06;-1.80;99.90
26621;DHT22;14253;44.840;10.444;2024-01-30T02:33:32;-1.70;99.90
26621;DHT22;14253;44.840;10.444;2024-01-30T02:35:58;-1.70;99.90
26621;DHT22;14253;44.840;10.444;2024-01-30T02:38:24;-1.70;99.90
26621;DHT22;14253;44.840;10.444;2024-01-30T02:40:52;-1.70;99.90
26621;DHT22;14253;44.840;10.444;2024-01-30T02:43:18;-1.70;99.90
26621;DHT22;14253;44.840;10.444;2024-01-30T02:45:45;-1.80;99.90
26621;DHT22;14253;44.840;10.444;2024-01-30T02:48:11;-1.80;99.90
26621;DHT22;14253;44.840;10.444;2024-01-30T02:50:36;-1.70;99.90
26621;DHT22;14253;44.840;10.444;2024-01-30T02:53:02;-1.70;99.90
26621;DHT22;14253;44.840;10.444;2024-01-30T02:55:28;-1.70;99.90
26621;DHT22;14253;44.840;10.444;2024-01-30T02:57:54;-1.70;99.90
26621;DHT22;14253;44.840;10.444;2024-01-30T03:00:20;-1.60;99.90
26621;DHT22;14253;44.840;10.444;2024-01-30T03:02:46;-1.70;99.90
26621;DHT22;14253;44.840;10.444;2024-01-30T03:05:12;-1.70;99.90
26621;DHT22;14253;44.840;10.444;2024-01-30T03:07:38;-1.70;99.90
26621;DHT22;14253;44.840;10.444;2024-01-30T03:10:05;-1.70;99.90
26621;DHT22;14253;44.840;10.444;2024-01-30T03:12:32;-1.60;99.90
26621;DHT22;14253;44.840;10.444;2024-01-30T03:14:58;-1.60;99.90
26621;DHT22;14253;44.840;10.444;2024-01-30T03:17:24;-1.50;99.90
26621;DHT22;14253;44.840;10.444;2024-01-30T03:19:50;-1.60;99.90
26621;DHT22;14253;44.840;10.444;2024-01-30T03:22:16;-1.60;99.90
26621;DHT22;14253;44.840;10.444;2024-01-30T03:24:42;-1.60;99.90
26621;DHT22;14253;44.840;10.444;2024-01-30T03:27:08;-1.60;99.90
26621;DHT22;14253;44.840;10.444;2024-01-30T03:29:34;-1.70;99.90
26621;DHT22;14253;44.840;10.444;2024-01-30T03:32:01;-1.60;99.90
26621;DHT22;14253;44.840;10.444;2024-01-30T03:34:27;-1.50;99.90
26621;DHT22;14253;44.840;10.444;2024-01-30T03:36:52;-1.50;99.90
26621;DHT22;14253;44.840;10.444;2024-01-30T03:39:18;-1.50;99.90
26621;DHT22;14253;44.840;10.444;2024-01-30T03:41:44;-1.40;99.90
26621;DHT22;14253;44.840;10.444;2024-01-30T03:44:11;-1.50;99.90
26621;DHT22;14253;44.840;10.444;2024-01-30T03:46:37;-1.50;99.90
26621;DHT22;14253;44.840;10.444;2024-01-30T03:49:03;-1.50;99.90
26621;DHT22;14253;44.840;10.444;2024-01-30T03:51:29;-1.50;99.90
26621;DHT22;14253;44.840;10.444;2024-01-30T03:53:55;-1.40;99.90
26621;DHT22;14253;44.840;10.444;2024-01-30T03:56:21;-1.50;99.90
26621;DHT22;14253;44.840;10.444;2024-01-30T03:58:47;-1.50;99.90
26621;DHT22;14253;44.840;10.444;2024-01-30T04:01:16;-1.50;99.90
26621;DHT22;14253;44.840;10.444;2024-01-30T04:03:42;-1.40;99.90
26621;DHT22;14253;44.840;10.444;2024-01-30T04:06:09;-1.50;99.90
26621;DHT22;14253;44.840;10.444;2024-01-30T04:08:35;-1.50;99.90
26621;DHT22;14253;44.840;10.444;2024-01-30T04:11:05;-1.50;99.90
26621;DHT22;14253;44.840;10.444;2024-01-30T04:13:32;-1.50;99.90
26621;DHT22;14253;44.840;10.444;2024-01-30T04:15:59;-1.50;99.90
26621;DHT22;14253;44.840;10.444;2024-01-30T04:18:27;-1.50;99.90
26621;DHT22;14253;44.840;10.444;2024-01-30T04:20:53;-1.40;99.90
26621;DHT22;14253;44.840;10.444;2024-01-30T04:23:19;-1.30;99.90
26621;DHT22;14253;44.840;10.444;2024-01-30T04:25:45;-1.30;99.90
26621;DHT22;14253;44.840;10.444;2024-01-30T04:28:12;-1.40;99.90
26621;DHT22;14253;44.840;10.444;2024-01-30T04:30:38;-1.50;99.90
26621;DHT22;14253;44.840;10.444;2024-01-30T04:33:04;-1.60;99.90
26621;DHT22;14253;44.840;10.444;2024-01-30T04:35:30;-1.60;99.90
26621;DHT22;14253;44.840;10.444;2024-01-30T04:37:56;-1.60;99.90
26621;DHT22;14253;44.840;10.444;2024-01-30T04:40:22;-1.60;99.90
26621;DHT22;14253;44.840;10.444;2024-01-30T04:42:48;-1.70;99.90
26621;DHT22;14253;44.840;10.444;2024-01-30T04:45:14;-1.70;99.90
26621;DHT22;14253;44.840;10.444;2024-01-30T04:47:40;-1.70;99.90
26621;DHT22;14253;44.840;10.444;2024-01-30T04:50:07;-1.70;99.90
26621;DHT22;14253;44.840;10.444;2024-01-30T04:52:34;-1.60;99.90
26621;DHT22;14253;44.840;10.444;2024-01-30T04:55:00;-1.60;99.90
26621;DHT22;14253;44.840;10.444;2024-01-30T04:57:26;-1.60;99.90
26621;DHT22;14253;44.840;10.444;2024-01-30T04:59:52;-1.60;99.90
26621;DHT22;14253;44.840;10.444;2024-01-30T05:02:18;-1.60;99.90
26621;DHT22;14253;44.840;10.444;2024-01-30T05:04:44;-1.50;99.90
26621;DHT22;14253;44.840;10.444;2024-01-30T05:07:10;-1.50;99.90
26621;DHT22;14253;44.840;10.444;2024-01-30T05:09:36;-1.60;99.90
26621;DHT22;14253;44.840;10.444;2024-01-30T05:12:02;-1.50;99.90
26621;DHT22;14253;44.840;10.444;2024-01-30T05:14:28;-1.50;99.90
26621;DHT22;14253;44.840;10.444;2024-01-30T05:16:54;-1.50;99.90
26621;DHT22;14253;44.840;10.444;2024-01-30T05:19:20;-1.40;99.90
26621;DHT22;14253;44.840;10.444;2024-01-30T05:21:49;-1.40;99.90
26621;DHT22;14253;44.840;10.444;2024-01-30T05:24:15;-1.40;99.90
26621;DHT22;14253;44.840;10.444;2024-01-30T05:26:41;-1.50;99.90
26621;DHT22;14253;44.840;10.444;2024-01-30T05:29:07;-1.40;99.90
26621;DHT22;14253;44.840;10.444;2024-01-30T05:31:34;-1.40;99.90
26621;DHT22;14253;44.840;10.444;2024-01-30T05:34:00;-1.50;99.90
26621;DHT22;14253;44.840;10.444;2024-01-30T05:36:26;-1.60;99.90
26621;DHT22;14253;44.840;10.444;2024-01-30T05:38:52;-1.60;99.90
26621;DHT22;14253;44.840;10.444;2024-01-30T05:41:19;-1.70;99.90
26621;DHT22;14253;44.840;10.444;2024-01-30T05:43:46;-1.80;99.90
26621;DHT22;14253;44.840;10.444;2024-01-30T05:46:12;-1.80;99.90
26621;DHT22;14253;44.840;10.444;2024-01-30T05:48:44;-1.80;99.90
26621;DHT22;14253;44.840;10.444;2024-01-30T05:51:10;-1.90;99.90
26621;DHT22;14253;44.840;10.444;2024-01-30T05:53:36;-1.90;99.90
26621;DHT22;14253;44.840;10.444;2024-01-30T05:56:03;-1.90;99.90
26621;DHT22;14253;44.840;10.444;2024-01-30T05:58:29;-1.90;99.90
26621;DHT22;14253;44.840;10.444;2024-01-30T06:00:55;-1.90;99.90
26621;DHT22;14253;44.840;10.444;2024-01-30T06:03:21;-1.90;99.90
26621;DHT22;14253;44.840;10.444;2024-01-30T06:05:47;-1.90;99.90
26621;DHT22;14253;44.840;10.444;2024-01-30T06:08:12;-1.90;99.90
26621;DHT22;14253;44.840;10.444;2024-01-30T06:10:38;-1.80;99.90
26621;DHT22;14253;44.840;10.444;2024-01-30T06:13:05;-1.90;99.90
26621;DHT22;14253;44.840;10.444;2024-01-30T06:15:31;-1.80;99.90
26621;DHT22;14253;44.840;10.444;2024-01-30T06:17:58;-1.80;99.90
26621;DHT22;14253;44.840;10.444;2024-01-30T06:20:24;-1.80;99.90
26621;DHT22;14253;44.840;10.444;2024-01-30T06:22:50;-1.80;99.90
26621;DHT22;14253;44.840;10.444;2024-01-30T06:25:16;-1.90;99.90
26621;DHT22;14253;44.840;10.444;2024-01-30T06:27:43;-1.90;99.90
26621;DHT22;14253;44.840;10.444;2024-01-30T06:30:09;-1.90;99.90
26621;DHT22;14253;44.840;10.444;2024-01-30T06:32:36;-1.90;99.90
26621;DHT22;14253;44.840;10.444;2024-01-30T06:35:02;-1.90;99.90
26621;DHT22;14253;44.840;10.444;2024-01-30T06:37:28;-1.80;99.90
26621;DHT22;14253;44.840;10.444;2024-01-30T06:39:54;-1.80;99.90
26621;DHT22;14253;44.840;10.444;2024-01-30T06:42:20;-1.90;99.90
26621;DHT22;14253;44.840;10.444;2024-01-30T06:44:46;-1.90;99.90
26621;DHT22;14253;44.840;10.444;2024-01-30T06:47:12;-2.00;99.90
26621;DHT22;14253;44.840;10.444;2024-01-30T06:49:38;-2.00;99.90
26621;DHT22;14253;44.840;10.444;2024-01-30T06:52:07;-1.90;99.90
26621;DHT22;14253;44.840;10.444;2024-01-30T06:54:34;-1.90;99.90
26621;DHT22;14253;44.840;10.444;2024-01-30T06:57:00;-1.80;99.90
26621;DHT22;14253;44.840;10.444;2024-01-30T06:59:35;-1.80;99.90
26621;DHT22;14253;44.840;10.444;2024-01-30T07:02:22;-1.80;99.90
26621;DHT22;14253;44.840;10.444;2024-01-30T07:04:50;-1.90;99.90
26621;DHT22;14253;44.840;10.444;2024-01-30T07:07:16;-1.90;99.90
26621;DHT22;14253;44.840;10.444;2024-01-30T07:09:43;-1.80;99.90
26621;DHT22;14253;44.840;10.444;2024-01-30T07:12:09;-1.70;99.90
26621;DHT22;14253;44.840;10.444;2024-01-30T07:14:35;-1.60;99.90
26621;DHT22;14253;44.840;10.444;2024-01-30T07:17:01;-1.70;99.90
26621;DHT22;14253;44.840;10.444;2024-01-30T07:19:30;-1.60;99.90
26621;DHT22;14253;44.840;10.444;2024-01-30T07:28:31;-1.50;99.90
26621;DHT22;14253;44.840;10.444;2024-01-30T07:31:03;-1.50;99.90
26621;DHT22;14253;44.840;10.444;2024-01-30T07:33:29;-1.40;99.90
26621;DHT22;14253;44.840;10.444;2024-01-30T07:35:55;-1.40;99.90
26621;DHT22;14253;44.840;10.444;2024-01-30T07:38:21;-1.40;99.90
26621;DHT22;14253;44.840;10.444;2024-01-30T07:40:47;-1.60;99.90
26621;DHT22;14253;44.840;10.444;2024-01-30T07:43:16;-1.60;99.90
26621;DHT22;14253;44.840;10.444;2024-01-30T07:45:56;-1.60;99.90
26621;DHT22;14253;44.840;10.444;2024-01-30T07:48:22;-1.50;99.90
26621;DHT22;14253;44.840;10.444;2024-01-30T07:50:48;-1.70;99.90
26621;DHT22;14253;44.840;10.444;2024-01-30T07:53:25;-1.60;99.90
26621;DHT22;14253;44.840;10.444;2024-01-30T07:55:52;-1.60;99.90
26621;DHT22;14253;44.840;10.444;2024-01-30T07:58:18;-1.50;99.90
26621;DHT22;14253;44.840;10.444;2024-01-30T08:03:34;-1.60;99.90
26621;DHT22;14253;44.840;10.444;2024-01-30T08:06:00;-1.60;99.90
26621;DHT22;14253;44.840;10.444;2024-01-30T08:08:27;-1.60;99.90
26621;DHT22;14253;44.840;10.444;2024-01-30T08:10:54;-1.50;99.90
26621;DHT22;14253;44.840;10.444;2024-01-30T08:23:11;-1.20;99.90
26621;DHT22;14253;44.840;10.444;2024-01-30T08:25:41;-1.20;99.90
26621;DHT22;14253;44.840;10.444;2024-01-30T08:28:07;-1.30;99.90
26621;DHT22;14253;44.840;10.444;2024-01-30T08:30:33;-1.20;99.90
26621;DHT22;14253;44.840;10.444;2024-01-30T08:32:59;-1.20;99.90
26621;DHT22;14253;44.840;10.444;2024-01-30T08:35:26;-1.10;99.90
26621;DHT22;14253;44.840;10.444;2024-01-30T08:37:52;-1.00;99.90
26621;DHT22;14253;44.840;10.444;2024-01-30T08:40:20;-0.90;99.90
26621;DHT22;14253;44.840;10.444;2024-01-30T08:42:45;-0.90;99.90
26621;DHT22;14253;44.840;10.444;2024-01-30T08:45:12;-0.80;99.90
26621;DHT22;14253;44.840;10.444;2024-01-30T08:47:43;-0.70;99.90
26621;DHT22;14253;44.840;10.444;2024-01-30T08:50:09;-0.70;99.90
26621;DHT22;14253;44.840;10.444;2024-01-30T08:52:35;-0.60;99.90
26621;DHT22;14253;44.840;10.444;2024-01-30T08:55:01;-0.60;99.90
26621;DHT22;14253;44.840;10.444;2024-01-30T08:57:27;-0.70;99.90
26621;DHT22;14253;44.840;10.444;2024-01-30T08:59:59;-0.60;99.90
26621;DHT22;14253;44.840;10.444;2024-01-30T09:02:30;-0.50;99.90
26621;DHT22;14253;44.840;10.444;2024-01-30T09:04:56;-0.40;99.90
26621;DHT22;14253;44.840;10.444;2024-01-30T09:07:22;-0.50;99.90
26621;DHT22;14253;44.840;10.444;2024-01-30T09:09:54;-0.60;99.90
26621;DHT22;14253;44.840;10.444;2024-01-30T09:12:20;-0.60;99.90
26621;DHT22;14253;44.840;10.444;2024-01-30T09:14:47;-0.50;99.90
26621;DHT22;14253;44.840;10.444;2024-01-30T09:17:13;-0.40;99.90
26621;DHT22;14253;44.840;10.444;2024-01-30T09:19:40;-0.50;99.90
26621;DHT22;14253;44.840;10.444;2024-01-30T09:22:06;-0.50;99.90
26621;DHT22;14253;44.840;10.444;2024-01-30T09:24:32;-0.40;99.90
26621;DHT22;14253;44.840;10.444;2024-01-30T09:26:58;-0.50;99.90
26621;DHT22;14253;44.840;10.444;2024-01-30T09:29:24;-0.40;99.90
26621;DHT22;14253;44.840;10.444;2024-01-30T09:31:50;-0.40;99.90
26621;DHT22;14253;44.840;10.444;2024-01-30T09:34:16;-0.30;99.90
26621;DHT22;14253;44.840;10.444;2024-01-30T09:36:42;-0.10;99.90
26621;DHT22;14253;44.840;10.444;2024-01-30T09:39:09;0.00;99.90
26621;DHT22;14253;44.840;10.444;2024-01-30T09:41:45;0.10;99.90
26621;DHT22;14253;44.840;10.444;2024-01-30T09:44:15;0.30;99.90
26621;DHT22;14253;44.840;10.444;2024-01-30T09:46:43;0.50;99.90
26621;DHT22;14253;44.840;10.444;2024-01-30T09:49:12;0.40;99.90
26621;DHT22;14253;44.840;10.444;2024-01-30T09:51:40;0.40;99.90
26621;DHT22;14253;44.840;10.444;2024-01-30T09:54:08;0.40;99.90
26621;DHT22;14253;44.840;10.444;2024-01-30T09:56:35;0.40;99.90
26621;DHT22;14253;44.840;10.444;2024-01-30T09:59:01;0.40;99.90
26621;DHT22;14253;44.840;10.444;2024-01-30T10:01:29;0.60;99.90
26621;DHT22;14253;44.840;10.444;2024-01-30T10:03:57;0.80;99.90
26621;DHT22;14253;44.840;10.444;2024-01-30T10:06:27;0.90;99.90
26621;DHT22;14253;44.840;10.444;2024-01-30T10:09:05;1.20;99.90
26621;DHT22;14253;44.840;10.444;2024-01-30T10:11:45;1.20;99.90
26621;DHT22;14253;44.840;10.444;2024-01-30T10:21:14;1.30;99.90
26621;DHT22;14253;44.840;10.444;2024-01-30T10:26:46;1.30;99.90
26621;DHT22;14253;44.840;10.444;2024-01-30T10:29:12;1.50;99.90
26621;DHT22;14253;44.840;10.444;2024-01-30T10:31:59;1.60;99.90
26621;DHT22;14253;44.840;10.444;2024-01-30T10:37:57;1.80;99.90
26621;DHT22;14253;44.840;10.444;2024-01-30T10:40:28;1.90;99.90
26621;DHT22;14253;44.840;10.444;2024-01-30T10:42:55;1.90;99.90
26621;DHT22;14253;44.840;10.444;2024-01-30T10:49:26;1.80;99.90
26621;DHT22;14253;44.840;10.444;2024-01-30T10:51:59;1.80;99.90
26621;DHT22;14253;44.840;10.444;2024-01-30T11:00:41;2.10;99.90
26621;DHT22;14253;44.840;10.444;2024-01-30T11:03:07;2.10;99.90
26621;DHT22;14253;44.840;10.444;2024-01-30T11:05:35;2.10;99.90
26621;DHT22;14253;44.840;10.444;2024-01-30T11:08:14;2.10;99.90
26621;DHT22;14253;44.840;10.444;2024-01-30T11:10:47;2.20;99.90
26621;DHT22;14253;44.840;10.444;2024-01-30T11:13:37;2.30;99.90
26621;DHT22;14253;44.840;10.444;2024-01-30T11:16:30;2.30;99.90
26621;DHT22;14253;44.840;10.444;2024-01-30T11:19:18;2.50;99.90
26621;DHT22;14253;44.840;10.444;2024-01-30T11:21:54;2.50;99.90
26621;DHT22;14253;44.840;10.444;2024-01-30T11:24:23;2.50;99.90
26621;DHT22;14253;44.840;10.444;2024-01-30T11:26:55;2.50;99.90
26621;DHT22;14253;44.840;10.444;2024-01-30T11:29:25;2.60;99.90
26621;DHT22;14253;44.840;10.444;2024-01-30T11:32:00;2.60;99.90
26621;DHT22;14253;44.840;10.444;2024-01-30T11:34:31;2.50;99.90
26621;DHT22;14253;44.840;10.444;2024-01-30T11:37:09;2.60;99.90
26621;DHT22;14253;44.840;10.444;2024-01-30T11:39:36;2.50;99.90
26621;DHT22;14253;44.840;10.444;2024-01-30T11:42:08;2.60;99.90
26621;DHT22;14253;44.840;10.444;2024-01-30T11:44:34;2.70;99.90
26621;DHT22;14253;44.840;10.444;2024-01-30T11:47:00;2.60;99.90
26621;DHT22;14253;44.840;10.444;2024-01-30T11:49:29;2.80;99.90
26621;DHT22;14253;44.840;10.444;2024-01-30T11:51:57;3.00;99.90
26621;DHT22;14253;44.840;10.444;2024-01-30T11:54:31;3.20;99.90
26621;DHT22;14253;44.840;10.444;2024-01-30T11:56:57;3.30;99.90
26621;DHT22;14253;44.840;10.444;2024-01-30T11:59:23;3.50;99.90
26621;DHT22;14253;44.840;10.444;2024-01-30T12:01:51;3.60;99.90
26621;DHT22;14253;44.840;10.444;2024-01-30T12:04:18;3.60;99.90
26621;DHT22;14253;44.840;10.444;2024-01-30T12:06:44;3.60;99.90
26621;DHT22;14253;44.840;10.444;2024-01-30T12:09:10;3.70;99.90
26621;DHT22;14253;44.840;10.444;2024-01-30T12:11:48;3.80;99.90
26621;DHT22;14253;44.840;10.444;2024-01-30T12:14:14;3.90;99.90
26621;DHT22;14253;44.840;10.444;2024-01-30T12:16:41;3.90;99.90
26621;DHT22;14253;44.840;10.444;2024-01-30T12:19:09;4.10;99.90
26621;DHT22;14253;44.840;10.444;2024-01-30T12:21:37;4.10;99.90
26621;DHT22;14253;44.840;10.444;2024-01-30T12:24:05;4.20;99.90
26621;DHT22;14253;44.840;10.444;2024-01-30T12:26:33;4.20;99.90
26621;DHT22;14253;44.840;10.444;2024-01-30T12:28:59;4.20;99.90
26621;DHT22;14253;44.840;10.444;2024-01-30T12:31:28;4.30;99.90
26621;DHT22;14253;44.840;10.444;2024-01-30T12:33:54;4.30;99.90
26621;DHT22;14253;44.840;10.444;2024-01-30T12:36:21;4.40;99.90
26621;DHT22;14253;44.840;10.444;2024-01-30T12:38:48;4.20;99.90
26621;DHT22;14253;44.840;10.444;2024-01-30T12:41:14;4.20;99.90
26621;DHT22;14253;44.840;10.444;2024-01-30T12:43:40;4.20;99.90
26621;DHT22;14253;44.840;10.444;2024-01-30T12:46:06;4.30;99.90
26621;DHT22;14253;44.840;10.444;2024-01-30T12:48:33;4.30;99.90
26621;DHT22;14253;44.840;10.444;2024-01-30T12:50:59;4.30;99.90
26621;DHT22;14253;44.840;10.444;2024-01-30T12:53:25;4.40;99.90
26621;DHT22;14253;44.840;10.444;2024-01-30T12:55:51;4.40;99.90
26621;DHT22;14253;44.840;10.444;2024-01-30T12:58:17;4.50;99.90
26621;DHT22;14253;44.840;10.444;2024-01-30T13:00:43;4.50;99.90
26621;DHT22;14253;44.840;10.444;2024-01-30T13:03:11;4.40;99.90
26621;DHT22;14253;44.840;10.444;2024-01-30T13:05:37;4.40;99.90
26621;DHT22;14253;44.840;10.444;2024-01-30T13:08:03;4.40;99.90
26621;DHT22;14253;44.840;10.444;2024-01-30T13:10:32;4.40;99.90
26621;DHT22;14253;44.840;10.444;2024-01-30T13:13:00;4.60;99.90
26621;DHT22;14253;44.840;10.444;2024-01-30T13:15:26;4.80;99.90
26621;DHT22;14253;44.840;10.444;2024-01-30T13:17:58;4.80;99.90
26621;DHT22;14253;44.840;10.444;2024-01-30T13:20:25;5.10;99.90
26621;DHT22;14253;44.840;10.444;2024-01-30T13:23:16;5.40;99.90
26621;DHT22;14253;44.840;10.444;2024-01-30T13:25:42;5.60;99.90
26621;DHT22;14253;44.840;10.444;2024-01-30T13:28:11;5.70;99.90
26621;DHT22;14253;44.840;10.444;2024-01-30T13:30:37;5.80;99.90
26621;DHT22;14253;44.840;10.444;2024-01-30T13:33:03;5.90;99.90
26621;DHT22;14253;44.840;10.444;2024-01-30T13:35:29;6.00;99.90
26621;DHT22;14253;44.840;10.444;2024-01-30T13:37:55;6.30;99.90
26621;DHT22;14253;44.840;10.444;2024-01-30T13:40:21;6.30;99.90
26621;DHT22;14253;44.840;10.444;2024-01-30T13:42:48;6.30;99.90
26621;DHT22;14253;44.840;10.444;2024-01-30T13:45:14;6.50;99.90
26621;DHT22;14253;44.840;10.444;2024-01-30T13:47:43;6.60;99.90
26621;DHT22;14253;44.840;10.444;2024-01-30T13:50:09;6.60;99.90
26621;DHT22;14253;44.840;10.444;2024-01-30T13:52:41;6.80;99.90
26621;DHT22;14253;44.840;10.444;2024-01-30T13:55:07;6.90;99.90
26621;DHT22;14253;44.840;10.444;2024-01-30T13:57:33;6.80;99.90
26621;DHT22;14253;44.840;10.444;2024-01-30T14:00:03;6.80;99.90
26621;DHT22;14253;44.840;10.444;2024-01-30T14:02:38;7.00;99.90
26621;DHT22;14253;44.840;10.444;2024-01-30T14:05:04;6.90;99.90
26621;DHT22;14253;44.840;10.444;2024-01-30T14:07:31;7.00;99.90
26621;DHT22;14253;44.840;10.444;2024-01-30T14:09:57;7.20;99.90
26621;DHT22;14253;44.840;10.444;2024-01-30T14:12:23;7.40;99.90
26621;DHT22;14253;44.840;10.444;2024-01-30T14:14:49;7.50;99.90
26621;DHT22;14253;44.840;10.444;2024-01-30T14:17:15;7.50;99.90
26621;DHT22;14253;44.840;10.444;2024-01-30T14:19:41;7.60;99.90
26621;DHT22;14253;44.840;10.444;2024-01-30T14:22:07;7.60;99.90
26621;DHT22;14253;44.840;10.444;2024-01-30T14:24:33;7.60;99.90
26621;DHT22;14253;44.840;10.444;2024-01-30T14:26:59;7.30;99.90
26621;DHT22;14253;44.840;10.444;2024-01-30T14:29:26;7.30;99.90
26621;DHT22;14253;44.840;10.444;2024-01-30T14:31:52;7.10;99.90
26621;DHT22;14253;44.840;10.444;2024-01-30T14:34:19;6.90;99.90
26621;DHT22;14253;44.840;10.444;2024-01-30T14:36:45;6.70;99.90
26621;DHT22;14253;44.840;10.444;2024-01-30T14:39:12;6.70;99.90
26621;DHT22;14253;44.840;10.444;2024-01-30T14:41:38;6.70;99.90
26621;DHT22;14253;44.840;10.444;2024-01-30T14:44:04;6.50;99.90
26621;DHT22;14253;44.840;10.444;2024-01-30T14:46:31;6.40;99.90
26621;DHT22;14253;44.840;10.444;2024-01-30T14:51:44;6.40;99.90
26621;DHT22;14253;44.840;10.444;2024-01-30T14:54:10;6.50;99.90
26621;DHT22;14253;44.840;10.444;2024-01-30T14:56:37;6.40;99.90
26621;DHT22;14253;44.840;10.444;2024-01-30T14:59:03;6.40;99.90
26621;DHT22;14253;44.840;10.444;2024-01-30T15:01:29;6.30;99.90
26621;DHT22;14253;44.840;10.444;2024-01-30T15:03:55;6.40;99.90
26621;DHT22;14253;44.840;10.444;2024-01-30T15:06:21;6.50;99.90
26621;DHT22;14253;44.840;10.444;2024-01-30T15:08:50;6.40;99.90
26621;DHT22;14253;44.840;10.444;2024-01-30T15:11:16;6.40;99.90
26621;DHT22;14253;44.840;10.444;2024-01-30T15:13:42;6.40;99.90
26621;DHT22;14253;44.840;10.444;2024-01-30T15:16:08;6.40;99.90
26621;DHT22;14253;44.840;10.444;2024-01-30T15:18:35;6.40;99.90
26621;DHT22;14253;44.840;10.444;2024-01-30T15:21:01;6.50;99.90
26621;DHT22;14253;44.840;10.444;2024-01-30T15:23:27;6.50;99.90
26621;DHT22;14253;44.840;10.444;2024-01-30T15:25:53;6.50;99.90
26621;DHT22;14253;44.840;10.444;2024-01-30T15:28:19;6.40;99.90
26621;DHT22;14253;44.840;10.444;2024-01-30T15:30:46;6.40;99.90
26621;DHT22;14253;44.840;10.444;2024-01-30T15:33:12;6.30;99.90
26621;DHT22;14253;44.840;10.444;2024-01-30T15:35:39;6.40;99.90
26621;DHT22;14253;44.840;10.444;2024-01-30T15:38:19;6.30;99.90
26621;DHT22;14253;44.840;10.444;2024-01-30T15:40:47;6.20;99.90
26621;DHT22;14253;44.840;10.444;2024-01-30T15:43:16;6.20;99.90
26621;DHT22;14253;44.840;10.444;2024-01-30T15:45:42;6.30;99.90
26621;DHT22;14253;44.840;10.444;2024-01-30T15:48:08;6.30;99.90
26621;DHT22;14253;44.840;10.444;2024-01-30T15:50:34;6.30;99.90
26621;DHT22;14253;44.840;10.444;2024-01-30T15:53:00;6.20;99.90
26621;DHT22;14253;44.840;10.444;2024-01-30T15:55:26;6.20;99.90
26621;DHT22;14253;44.840;10.444;2024-01-30T15:57:52;6.10;99.90
26621;DHT22;14253;44.840;10.444;2024-01-30T16:00:18;6.00;99.90
26621;DHT22;14253;44.840;10.444;2024-01-30T16:02:44;5.80;99.90
26621;DHT22;14253;44.840;10.444;2024-01-30T16:05:11;5.70;99.90
26621;DHT22;14253;44.840;10.444;2024-01-30T16:07:40;5.60;99.90
26621;DHT22;14253;44.840;10.444;2024-01-30T16:10:07;5.50;99.90